Time;durP1;ratioP1;P1;durP2;ratioP2;P2;SDS_P1;SDS_P2;PMS_P1;PMS_P2;Temp;Humidity;BMP_temperature;BMP_pressure;BME280_temperature;BME280_humidity;BME280_pressure;Samples;Min_cycle;Max_cycle;Signal;HPM_P1;HPM_P2
2021/09/26 00:00:20;;;;;;;13.83;10.93;;;19.60;99.90;;;;;;6129626;23;20457;-93
2021/09/26 00:02:47;;;;;;;13.07;10.87;;;19.70;99.90;;;;;;6131041;23;20493;-91
2021/09/26 00:05:14;;;;;;;11.53;10.40;;;19.70;99.90;;;;;;6131336;23;20897;-93
2021/09/26 00:07:41;;;;;;;12.00;10.80;;;19.70;99.90;;;;;;6131069;23;20968;-92
2021/09/26 00:10:10;;;;;;;11.77;10.60;;;19.70;99.90;;;;;;6146894;23;20400;-92
2021/09/26 00:12:38;;;;;;;11.93;10.90;;;19.70;99.90;;;;;;6154449;23;20421;-91
2021/09/26 00:15:10;;;;;;;11.97;10.77;;;19.70;99.90;;;;;;6140450;23;20398;-91
2021/09/26 00:17:37;;;;;;;11.67;10.60;;;19.70;99.90;;;;;;6144261;23;20471;-92
2021/09/26 00:20:05;;;;;;;12.70;11.50;;;19.70;99.90;;;;;;6130316;23;20414;-92
2021/09/26 00:22:32;;;;;;;12.20;11.03;;;19.70;99.90;;;;;;6129739;23;20749;-92
2021/09/26 00:24:59;;;;;;;10.33;9.33;;;19.70;99.90;;;;;;6129633;23;20887;-91
2021/09/26 00:27:25;;;;;;;11.70;10.63;;;19.70;99.90;;;;;;6129574;23;20422;-93
2021/09/26 00:29:52;;;;;;;10.40;9.40;;;19.70;99.90;;;;;;6127970;23;20521;-92
2021/09/26 00:32:20;;;;;;;11.13;10.20;;;19.70;99.90;;;;;;6128952;23;20421;-91
2021/09/26 00:34:47;;;;;;;9.97;9.27;;;19.70;99.90;;;;;;6142062;23;20458;-89
2021/09/26 00:37:15;;;;;;;15.03;10.10;;;19.80;99.90;;;;;;6139566;23;20473;-91
2021/09/26 00:39:42;;;;;;;11.33;10.03;;;19.80;99.90;;;;;;6136403;23;20500;-92
2021/09/26 00:42:09;;;;;;;9.93;9.10;;;19.80;99.90;;;;;;6151791;23;20393;-90
2021/09/26 00:44:36;;;;;;;11.13;10.03;;;19.80;99.90;;;;;;6136474;23;20419;-93
2021/09/26 00:47:03;;;;;;;9.60;8.50;;;19.70;99.90;;;;;;6129866;23;20454;-92
2021/09/26 00:49:32;;;;;;;11.20;10.20;;;19.80;99.90;;;;;;6128905;23;20452;-94
2021/09/26 00:51:59;;;;;;;10.43;9.50;;;19.60;99.90;;;;;;6140429;23;20466;-90
2021/09/26 00:54:26;;;;;;;10.27;9.33;;;19.60;99.90;;;;;;6131889;23;20442;-93
2021/09/26 00:56:53;;;;;;;10.00;9.20;;;19.60;99.90;;;;;;6154173;23;20418;-89
2021/09/26 00:59:22;;;;;;;10.87;9.93;;;19.60;99.90;;;;;;6154311;23;20394;-91
2021/09/26 01:01:50;;;;;;;10.33;9.43;;;19.50;99.90;;;;;;6153880;23;20414;-92
2021/09/26 01:04:18;;;;;;;10.50;9.50;;;19.40;99.90;;;;;;6147815;23;20403;-93
2021/09/26 01:06:55;;;;;;;10.50;9.43;;;19.40;99.90;;;;;;6140109;23;20442;-92
2021/09/26 01:09:29;;;;;;;11.67;10.57;;;19.50;99.90;;;;;;6148336;23;20434;-92
2021/09/26 01:12:02;;;;;;;11.30;9.97;;;19.40;99.90;;;;;;6150776;23;20380;-91
2021/09/26 01:14:41;;;;;;;11.20;10.20;;;19.40;99.90;;;;;;6134181;23;20418;-92
2021/09/26 01:17:18;;;;;;;10.23;9.30;;;19.50;99.90;;;;;;6129019;23;20746;-93
2021/09/26 01:20:12;;;;;;;10.43;9.33;;;19.40;99.90;;;;;;6128896;23;20397;-93
2021/09/26 01:23:00;;;;;;;10.83;9.83;;;19.40;99.90;;;;;;6129279;23;20476;-93
2021/09/26 01:25:48;;;;;;;12.87;10.40;;;19.50;99.90;;;;;;6129211;23;20391;-93
2021/09/26 01:28:31;;;;;;;11.63;10.47;;;19.40;99.90;;;;;;6129637;23;20500;-92
2021/09/26 01:31:03;;;;;;;11.47;9.87;;;19.50;99.90;;;;;;6129644;23;20379;-93
2021/09/26 01:33:32;;;;;;;10.80;9.67;;;19.50;99.90;;;;;;6152789;23;20441;-90
2021/09/26 01:36:02;;;;;;;11.37;10.13;;;19.50;99.90;;;;;;6132873;23;20449;-92
2021/09/26 01:38:36;;;;;;;12.00;10.73;;;19.50;99.90;;;;;;6130025;23;20431;-92
2021/09/26 01:41:10;;;;;;;10.60;9.70;;;19.40;99.90;;;;;;6130750;23;20531;-93
2021/09/26 01:43:40;;;;;;;12.10;10.97;;;19.40;99.90;;;;;;6145969;23;20422;-90
2021/09/26 01:46:11;;;;;;;12.07;10.97;;;19.30;99.90;;;;;;6153827;23;20386;-90
2021/09/26 01:48:47;;;;;;;12.83;11.63;;;19.20;99.90;;;;;;6153210;23;20450;-91
2021/09/26 01:51:15;;;;;;;12.37;11.07;;;19.20;99.90;;;;;;6145379;23;20394;-93
2021/09/26 01:53:44;;;;;;;14.43;10.70;;;19.00;99.90;;;;;;6152391;23;20609;-91
2021/09/26 01:56:14;;;;;;;12.17;10.97;;;19.00;99.90;;;;;;6153561;23;20409;-89
2021/09/26 01:58:41;;;;;;;11.40;10.40;;;18.90;99.90;;;;;;6145056;23;20453;-92
2021/09/26 02:01:10;;;;;;;12.80;10.60;;;18.90;99.90;;;;;;6144356;23;20401;-91
2021/09/26 02:03:39;;;;;;;14.63;13.40;;;19.00;99.90;;;;;;6131125;23;20409;-93
2021/09/26 02:06:06;;;;;;;12.83;10.37;;;18.90;99.90;;;;;;6131924;23;20410;-93
2021/09/26 02:08:34;;;;;;;11.60;10.50;;;18.90;99.90;;;;;;6131032;23;20488;-93
2021/09/26 02:11:02;;;;;;;11.87;10.77;;;18.80;99.90;;;;;;6131410;23;20431;-92
2021/09/26 02:13:30;;;;;;;12.27;10.40;;;18.70;99.90;;;;;;6128515;23;20466;-93
2021/09/26 02:15:58;;;;;;;10.30;9.40;;;18.60;99.90;;;;;;6129854;23;20417;-93
2021/09/26 02:18:26;;;;;;;11.47;10.40;;;18.60;99.90;;;;;;6128401;23;20425;-92
2021/09/26 02:20:54;;;;;;;12.43;11.23;;;18.60;99.90;;;;;;6147322;23;20492;-90
2021/09/26 02:23:23;;;;;;;13.23;11.93;;;18.60;99.90;;;;;;6136121;23;20485;-92
2021/09/26 02:25:54;;;;;;;12.73;11.53;;;18.70;99.90;;;;;;6129693;23;20400;-93
2021/09/26 02:28:22;;;;;;;14.77;12.17;;;18.70;99.90;;;;;;6127095;23;20508;-92
2021/09/26 02:30:50;;;;;;;13.30;11.90;;;18.50;99.90;;;;;;6130506;23;20443;-92
2021/09/26 02:33:17;;;;;;;12.30;11.30;;;18.50;99.90;;;;;;6135489;23;20444;-92
2021/09/26 02:35:45;;;;;;;11.93;10.73;;;18.50;99.90;;;;;;6129614;23;20408;-93
2021/09/26 02:38:12;;;;;;;13.17;11.77;;;18.50;99.90;;;;;;6134274;23;20447;-90
2021/09/26 02:40:46;;;;;;;12.93;11.73;;;18.40;99.90;;;;;;6153523;23;20476;-91
2021/09/26 02:43:26;;;;;;;12.03;10.70;;;18.40;99.90;;;;;;6146667;23;20404;-93
2021/09/26 02:45:59;;;;;;;12.60;11.40;;;18.40;99.90;;;;;;6140237;23;20420;-93
2021/09/26 02:48:28;;;;;;;11.97;10.87;;;18.50;99.90;;;;;;6131149;23;20476;-93
2021/09/26 02:50:57;;;;;;;12.90;11.60;;;18.50;99.90;;;;;;6148624;23;20435;-91
2021/09/26 02:53:26;;;;;;;13.10;11.40;;;18.50;99.90;;;;;;6146757;23;20474;-93
2021/09/26 02:55:53;;;;;;;12.47;10.90;;;18.40;99.90;;;;;;6133766;23;20488;-93
2021/09/26 02:58:21;;;;;;;14.87;11.17;;;18.40;99.90;;;;;;6132691;23;20425;-93
2021/09/26 03:00:49;;;;;;;10.93;10.00;;;18.40;99.90;;;;;;6148239;23;20466;-93
2021/09/26 03:03:18;;;;;;;12.60;11.50;;;18.30;99.90;;;;;;6128645;23;20459;-93
2021/09/26 03:05:46;;;;;;;12.50;10.90;;;18.20;99.90;;;;;;6128559;23;20419;-93
2021/09/26 03:08:15;;;;;;;13.70;12.40;;;18.10;99.90;;;;;;6127734;23;20518;-92
2021/09/26 03:10:44;;;;;;;12.90;11.70;;;18.10;99.90;;;;;;6128047;23;20777;-92
2021/09/26 03:13:12;;;;;;;19.23;13.50;;;18.10;99.90;;;;;;6150583;23;20471;-90
2021/09/26 03:15:41;;;;;;;15.03;13.47;;;17.90;99.90;;;;;;6151745;23;20404;-90
2021/09/26 03:18:08;;;;;;;13.83;12.37;;;18.00;99.90;;;;;;6144523;23;20432;-93
2021/09/26 03:20:35;;;;;;;13.37;12.13;;;18.00;99.90;;;;;;6130358;23;20419;-91
2021/09/26 03:23:02;;;;;;;13.30;12.00;;;18.00;99.90;;;;;;6139764;23;20500;-90
2021/09/26 03:25:35;;;;;;;11.83;10.77;;;18.00;99.90;;;;;;6149360;23;20406;-91
2021/09/26 03:28:02;;;;;;;13.17;11.83;;;18.00;99.90;;;;;;6151065;23;20423;-90
2021/09/26 03:30:29;;;;;;;13.93;11.93;;;18.00;99.90;;;;;;6139924;23;20447;-92
2021/09/26 03:32:55;;;;;;;12.37;11.00;;;18.00;99.90;;;;;;6128649;23;20415;-91
2021/09/26 03:35:22;;;;;;;12.37;11.17;;;18.00;99.90;;;;;;6129255;23;20392;-91
2021/09/26 03:37:50;;;;;;;12.83;11.67;;;17.90;99.90;;;;;;6129909;23;20496;-92
2021/09/26 03:40:19;;;;;;;14.20;12.70;;;17.90;99.90;;;;;;6140248;23;20649;-88
2021/09/26 03:42:47;;;;;;;15.90;11.93;;;17.80;99.90;;;;;;6154871;23;20405;-90
2021/09/26 03:45:14;;;;;;;12.80;11.70;;;17.70;99.90;;;;;;6145889;23;20435;-90
2021/09/26 03:47:41;;;;;;;14.20;12.90;;;17.80;99.90;;;;;;6150230;23;20864;-91
2021/09/26 03:50:10;;;;;;;12.77;11.37;;;17.70;99.90;;;;;;6131892;23;20474;-92
2021/09/26 03:52:37;;;;;;;13.50;12.30;;;17.70;99.90;;;;;;6129880;23;20957;-92
2021/09/26 03:55:05;;;;;;;13.27;11.73;;;17.60;99.90;;;;;;6129846;23;20571;-93
2021/09/26 03:57:32;;;;;;;13.77;12.40;;;17.50;99.90;;;;;;6128921;23;20507;-93
2021/09/26 04:00:00;;;;;;;13.40;12.30;;;17.60;99.90;;;;;;6129441;23;20829;-92
2021/09/26 04:02:27;;;;;;;12.97;11.63;;;17.60;99.90;;;;;;6139755;23;20426;-91
2021/09/26 04:04:54;;;;;;;13.77;12.67;;;17.60;99.90;;;;;;6145849;23;20410;-92
2021/09/26 04:07:21;;;;;;;14.13;12.73;;;17.60;99.90;;;;;;6084963;23;1043838;-88
2021/09/26 04:09:48;;;;;;;13.20;11.43;;;17.50;99.90;;;;;;6148122;23;20206;-88
2021/09/26 04:12:14;;;;;;;12.63;11.37;;;17.50;99.90;;;;;;6145327;23;20415;-88
2021/09/26 04:14:41;;;;;;;13.87;12.37;;;17.50;99.90;;;;;;6146660;23;20387;-88
2021/09/26 04:17:09;;;;;;;12.90;11.60;;;17.50;99.90;;;;;;6143976;23;20442;-89
2021/09/26 04:19:36;;;;;;;12.37;11.27;;;17.50;99.90;;;;;;6144754;23;20391;-89
2021/09/26 04:22:03;;;;;;;14.10;12.87;;;17.50;99.90;;;;;;6147115;23;20414;-91
2021/09/26 04:24:30;;;;;;;12.60;11.40;;;17.50;99.90;;;;;;6145883;23;20418;-88
2021/09/26 04:26:57;;;;;;;13.43;12.03;;;17.50;99.90;;;;;;6151967;23;20418;-88
2021/09/26 04:29:24;;;;;;;11.47;10.43;;;17.40;99.90;;;;;;6147929;23;20445;-89
2021/09/26 04:31:51;;;;;;;12.77;11.67;;;17.40;99.90;;;;;;6149455;23;20394;-87
2021/09/26 04:34:19;;;;;;;16.53;12.73;;;17.30;99.90;;;;;;6154976;23;20466;-87
2021/09/26 04:36:47;;;;;;;13.43;12.13;;;17.30;99.90;;;;;;6154508;23;20393;-88
2021/09/26 04:39:14;;;;;;;12.80;10.80;;;17.30;99.90;;;;;;6154243;23;20399;-89
2021/09/26 04:41:41;;;;;;;13.13;11.83;;;17.30;99.90;;;;;;6153487;23;20398;-90
2021/09/26 04:44:08;;;;;;;14.90;13.37;;;17.30;99.90;;;;;;6153070;23;20394;-89
2021/09/26 04:46:34;;;;;;;14.17;12.80;;;17.20;99.90;;;;;;6137384;23;20451;-89
2021/09/26 04:49:01;;;;;;;14.23;12.93;;;17.20;99.90;;;;;;6131086;23;20531;-90
2021/09/26 04:51:29;;;;;;;13.87;12.63;;;17.20;99.90;;;;;;6130348;23;20443;-90
2021/09/26 04:53:56;;;;;;;14.63;13.23;;;17.20;99.90;;;;;;6131104;23;20409;-90
2021/09/26 04:56:23;;;;;;;13.50;12.10;;;17.20;99.90;;;;;;6136172;23;20419;-89
2021/09/26 04:58:50;;;;;;;15.97;13.03;;;17.10;99.90;;;;;;6134472;23;20427;-89
2021/09/26 05:01:17;;;;;;;12.20;11.10;;;17.00;99.90;;;;;;6132601;23;20423;-88
2021/09/26 05:03:44;;;;;;;12.93;11.30;;;17.10;99.90;;;;;;6145067;23;20902;-89
2021/09/26 05:06:12;;;;;;;12.47;11.17;;;17.10;99.90;;;;;;6134685;23;20404;-89
2021/09/26 05:08:40;;;;;;;13.27;11.60;;;17.10;99.90;;;;;;6128030;23;20434;-90
2021/09/26 05:11:06;;;;;;;13.20;11.90;;;17.00;99.90;;;;;;6130538;23;20453;-90
2021/09/26 05:13:35;;;;;;;13.37;11.97;;;17.00;99.90;;;;;;6129305;23;20414;-90
2021/09/26 05:16:02;;;;;;;13.83;12.50;;;17.00;99.90;;;;;;6129189;23;20418;-89
2021/09/26 05:18:28;;;;;;;14.90;13.43;;;16.90;99.90;;;;;;6133607;23;20428;-90
2021/09/26 05:20:56;;;;;;;13.80;12.43;;;17.00;99.90;;;;;;6139078;23;20402;-89
2021/09/26 05:23:22;;;;;;;13.17;11.97;;;16.90;99.90;;;;;;6138277;23;20409;-90
2021/09/26 05:25:51;;;;;;;14.03;12.73;;;16.90;99.90;;;;;;6134083;23;20408;-90
2021/09/26 05:28:17;;;;;;;14.17;12.87;;;16.80;99.90;;;;;;6141766;23;20451;-89
2021/09/26 05:30:44;;;;;;;14.53;13.10;;;16.70;99.90;;;;;;6129803;23;20443;-89
2021/09/26 05:33:12;;;;;;;18.97;17.00;;;16.70;99.90;;;;;;6127309;23;20384;-90
2021/09/26 05:35:39;;;;;;;14.60;13.30;;;16.70;99.90;;;;;;6127394;23;20740;-90
2021/09/26 05:38:05;;;;;;;12.13;11.03;;;16.80;99.90;;;;;;6126564;23;20412;-90
2021/09/26 05:40:32;;;;;;;14.10;12.70;;;16.80;99.90;;;;;;6126872;23;20411;-89
2021/09/26 05:43:00;;;;;;;13.90;12.67;;;16.80;99.90;;;;;;6126949;23;20433;-90
2021/09/26 05:45:27;;;;;;;12.40;11.20;;;16.80;99.90;;;;;;6126935;23;20911;-89
2021/09/26 05:47:54;;;;;;;13.43;12.13;;;16.80;99.90;;;;;;6127069;23;20515;-89
2021/09/26 05:50:21;;;;;;;13.20;11.90;;;16.80;99.90;;;;;;6128449;23;20451;-90
2021/09/26 05:52:49;;;;;;;13.00;11.90;;;16.90;99.90;;;;;;6148885;23;20402;-88
2021/09/26 05:55:16;;;;;;;13.70;12.33;;;16.90;99.90;;;;;;6140176;23;20411;-88
2021/09/26 05:57:43;;;;;;;12.97;11.73;;;16.90;99.90;;;;;;6128620;23;20428;-89
2021/09/26 06:00:12;;;;;;;13.37;11.50;;;16.90;99.90;;;;;;6128698;23;20408;-90
2021/09/26 06:02:39;;;;;;;13.70;12.40;;;16.90;99.90;;;;;;6133918;23;20403;-90
2021/09/26 06:05:07;;;;;;;14.23;11.50;;;17.00;99.90;;;;;;6133724;23;20424;-90
2021/09/26 06:07:34;;;;;;;18.00;12.60;;;17.10;99.90;;;;;;6126608;23;20439;-89
2021/09/26 06:10:02;;;;;;;14.60;13.17;;;17.10;99.90;;;;;;6128506;23;20454;-89
2021/09/26 06:12:28;;;;;;;13.23;11.87;;;17.20;99.90;;;;;;6141574;23;20475;-88
2021/09/26 06:14:56;;;;;;;12.27;11.17;;;17.20;99.90;;;;;;6132470;23;20408;-90
2021/09/26 06:17:25;;;;;;;12.63;11.50;;;17.30;99.90;;;;;;6147696;23;20419;-87
2021/09/26 06:19:52;;;;;;;16.47;12.60;;;17.40;99.90;;;;;;6153209;23;20396;-89
2021/09/26 06:22:20;;;;;;;12.93;11.67;;;17.40;99.90;;;;;;6144180;23;20408;-89
2021/09/26 06:24:47;;;;;;;16.83;11.20;;;17.40;99.90;;;;;;6135298;23;20734;-89
2021/09/26 06:27:14;;;;;;;12.97;11.73;;;17.40;99.90;;;;;;6129803;23;20455;-90
2021/09/26 06:29:41;;;;;;;12.53;11.33;;;17.50;99.90;;;;;;6128523;23;20400;-90
2021/09/26 06:32:08;;;;;;;14.37;11.70;;;17.50;99.90;;;;;;6128608;23;20881;-89
2021/09/26 06:34:38;;;;;;;14.10;11.40;;;17.50;99.90;;;;;;6137864;23;20400;-88
2021/09/26 06:37:06;;;;;;;15.47;12.30;;;17.60;99.90;;;;;;6131549;23;20404;-90
2021/09/26 06:39:33;;;;;;;15.10;12.47;;;17.70;99.90;;;;;;6146219;23;20392;-88
2021/09/26 06:42:00;;;;;;;14.57;13.03;;;17.80;99.90;;;;;;6150822;23;20444;-89
2021/09/26 06:44:27;;;;;;;12.90;11.57;;;17.90;99.90;;;;;;6136119;23;20730;-89
2021/09/26 06:46:54;;;;;;;13.73;12.43;;;17.90;99.90;;;;;;6130358;23;20415;-89
2021/09/26 06:49:21;;;;;;;12.30;11.20;;;18.10;99.90;;;;;;6137445;23;20407;-89
2021/09/26 06:51:49;;;;;;;14.40;13.10;;;18.20;99.90;;;;;;6146497;23;20422;-88
2021/09/26 06:54:16;;;;;;;13.17;11.87;;;18.30;99.90;;;;;;6134024;23;20503;-90
2021/09/26 06:56:43;;;;;;;13.83;12.50;;;18.40;99.90;;;;;;6131370;23;20411;-89
2021/09/26 06:59:09;;;;;;;12.57;11.57;;;18.50;99.90;;;;;;6129584;23;20802;-90
2021/09/26 07:01:36;;;;;;;13.93;12.43;;;18.60;99.90;;;;;;6129471;23;20405;-89
2021/09/26 07:04:04;;;;;;;12.57;11.27;;;18.70;99.90;;;;;;6130098;23;20414;-89
2021/09/26 07:06:31;;;;;;;12.80;11.70;;;18.80;99.90;;;;;;6128746;23;20420;-89
2021/09/26 07:09:00;;;;;;;12.50;11.43;;;19.00;99.90;;;;;;6129786;23;20970;-89
2021/09/26 07:11:27;;;;;;;14.17;12.63;;;19.10;99.90;;;;;;6133410;23;20455;-89
2021/09/26 07:13:54;;;;;;;12.67;11.40;;;19.20;99.90;;;;;;6129210;23;20824;-89
2021/09/26 07:16:22;;;;;;;13.30;12.20;;;19.30;99.90;;;;;;6130016;23;20398;-89
2021/09/26 07:18:49;;;;;;;13.00;11.80;;;19.40;99.90;;;;;;6130008;23;20453;-88
2021/09/26 07:21:16;;;;;;;13.80;12.50;;;19.40;99.90;;;;;;6142110;23;20397;-89
2021/09/26 07:23:43;;;;;;;13.03;11.93;;;19.50;99.90;;;;;;6128737;23;20421;-89
2021/09/26 07:26:12;;;;;;;13.27;11.97;;;19.70;99.90;;;;;;6136041;23;20438;-88
2021/09/26 07:28:39;;;;;;;13.97;12.43;;;19.90;99.90;;;;;;6128040;23;20951;-89
2021/09/26 07:31:05;;;;;;;12.93;11.60;;;20.10;99.90;;;;;;6134296;23;20442;-89
2021/09/26 07:33:32;;;;;;;13.40;11.53;;;20.20;99.90;;;;;;6130349;23;20538;-88
2021/09/26 07:35:59;;;;;;;12.83;11.63;;;20.30;99.90;;;;;;6133099;23;20486;-89
2021/09/26 07:38:26;;;;;;;13.30;11.97;;;20.60;99.90;;;;;;6152866;23;20496;-88
2021/09/26 07:40:53;;;;;;;11.50;10.17;;;20.80;99.90;;;;;;6151532;23;20474;-88
2021/09/26 07:43:21;;;;;;;12.73;11.50;;;20.90;99.90;;;;;;6132062;23;20419;-90
2021/09/26 07:45:48;;;;;;;13.70;12.27;;;20.90;99.90;;;;;;6127747;23;20418;-90
2021/09/26 07:48:14;;;;;;;11.67;10.60;;;20.90;99.90;;;;;;6136444;23;20568;-83
2021/09/26 07:50:41;;;;;;;10.47;9.57;;;21.00;99.90;;;;;;6138175;23;20439;-83
2021/09/26 07:53:08;;;;;;;11.30;10.20;;;21.00;99.90;;;;;;6138504;23;20414;-83
2021/09/26 07:55:34;;;;;;;10.90;10.00;;;21.10;99.90;;;;;;6138254;23;20419;-83
2021/09/26 07:58:01;;;;;;;11.00;10.10;;;21.20;99.90;;;;;;6138577;23;21048;-82
2021/09/26 08:00:30;;;;;;;11.90;10.70;;;21.20;99.90;;;;;;6138331;23;20407;-83
2021/09/26 08:02:56;;;;;;;11.60;10.60;;;21.20;99.90;;;;;;6137441;23;20412;-83
2021/09/26 08:05:23;;;;;;;12.63;11.63;;;21.20;99.90;;;;;;6138144;23;20507;-84
2021/09/26 08:07:50;;;;;;;11.07;10.17;;;21.10;99.90;;;;;;6138795;23;20443;-84
2021/09/26 08:10:17;;;;;;;11.37;10.27;;;21.00;99.90;;;;;;6137783;23;20417;-84
2021/09/26 08:12:44;;;;;;;12.37;11.27;;;21.10;99.90;;;;;;6137767;23;20414;-82
2021/09/26 08:15:12;;;;;;;12.20;10.97;;;21.10;99.90;;;;;;6138535;23;20401;-82
2021/09/26 08:17:40;;;;;;;11.47;10.40;;;21.30;99.90;;;;;;6139248;23;20413;-82
2021/09/26 08:20:07;;;;;;;11.50;10.50;;;21.60;99.90;;;;;;6140217;23;20421;-82
2021/09/26 08:22:34;;;;;;;10.00;9.10;;;21.90;99.90;;;;;;6139264;23;20404;-81
2021/09/26 08:25:02;;;;;;;11.23;10.13;;;22.20;99.90;;;;;;6140642;23;20415;-82
2021/09/26 08:27:30;;;;;;;10.30;9.37;;;22.60;99.90;;;;;;6145316;23;20424;-82
2021/09/26 08:29:56;;;;;;;16.60;9.80;;;23.00;99.90;;;;;;6140587;23;20440;-82
2021/09/26 08:32:23;;;;;;;14.70;10.23;;;23.20;99.90;;;;;;6140607;23;20450;-82
2021/09/26 08:34:51;;;;;;;9.70;8.90;;;23.30;99.90;;;;;;6141224;23;20714;-82
2021/09/26 08:37:18;;;;;;;9.70;8.90;;;23.10;99.90;;;;;;6146103;23;20432;-81
2021/09/26 08:39:45;;;;;;;9.73;8.80;;;23.10;99.90;;;;;;6147516;23;20398;-82
2021/09/26 08:42:11;;;;;;;12.67;9.47;;;23.10;99.90;;;;;;6146331;23;20741;-82
2021/09/26 08:44:38;;;;;;;10.90;9.90;;;22.80;99.90;;;;;;6145747;23;20399;-80
2021/09/26 08:47:05;;;;;;;9.30;8.60;;;22.90;99.90;;;;;;6144107;23;20413;-82
2021/09/26 08:49:33;;;;;;;9.77;8.80;;;22.90;99.90;;;;;;6144300;23;20411;-81
2021/09/26 08:52:02;;;;;;;10.20;8.40;;;22.90;99.90;;;;;;6143093;23;20452;-82
2021/09/26 08:54:28;;;;;;;10.30;8.83;;;22.90;99.90;;;;;;6143045;23;20965;-81
2021/09/26 08:56:55;;;;;;;10.33;9.43;;;22.70;99.90;;;;;;6142591;23;20401;-82
2021/09/26 08:59:22;;;;;;;11.40;9.43;;;22.70;99.90;;;;;;6143346;23;20407;-82
2021/09/26 09:01:49;;;;;;;10.43;9.50;;;22.80;99.90;;;;;;6142576;23;20403;-82
2021/09/26 09:04:16;;;;;;;8.87;8.00;;;22.70;99.90;;;;;;6136003;23;20415;-82
2021/09/26 09:06:44;;;;;;;11.10;9.30;;;22.70;99.90;;;;;;6132595;23;20432;-81
2021/09/26 09:09:16;;;;;;;11.07;9.70;;;22.60;99.90;;;;;;6149806;23;20429;-80
2021/09/26 09:11:58;;;;;;;9.97;8.23;;;22.70;99.90;;;;;;6152960;23;20522;-81
2021/09/26 09:14:25;;;;;;;8.27;7.50;;;22.80;99.90;;;;;;6137382;23;20392;-81
2021/09/26 09:16:54;;;;;;;9.80;8.80;;;22.90;99.90;;;;;;6134010;23;20414;-82
2021/09/26 09:19:23;;;;;;;12.03;8.30;;;22.70;99.90;;;;;;6134729;23;20422;-81
2021/09/26 09:22:05;;;;;;;10.73;8.00;;;22.70;99.90;;;;;;6133578;23;20402;-82
2021/09/26 09:24:39;;;;;;;9.83;8.83;;;22.60;99.90;;;;;;6135595;23;20410;-82
2021/09/26 09:27:07;;;;;;;8.57;7.80;;;22.60;99.90;;;;;;6137950;23;20441;-80
2021/09/26 09:29:37;;;;;;;9.63;8.80;;;22.60;99.90;;;;;;6147300;23;20417;-81
2021/09/26 09:32:16;;;;;;;9.60;8.70;;;22.70;99.90;;;;;;6145552;23;20430;-81
2021/09/26 09:34:42;;;;;;;9.40;8.57;;;22.90;99.90;;;;;;6139582;23;20380;-82
2021/09/26 09:37:15;;;;;;;10.40;7.20;;;23.10;99.90;;;;;;6135944;23;20443;-81
2021/09/26 09:40:03;;;;;;;9.03;7.83;;;23.20;99.90;;;;;;6135421;23;20402;-82
2021/09/26 09:42:37;;;;;;;9.50;8.60;;;23.40;99.90;;;;;;6135667;23;20407;-81
2021/09/26 09:45:18;;;;;;;9.90;8.23;;;23.80;99.90;;;;;;6134507;23;20411;-81
2021/09/26 09:48:00;;;;;;;11.43;9.57;;;23.80;99.90;;;;;;6133973;23;20478;-81
2021/09/26 09:50:38;;;;;;;10.37;9.47;;;23.50;99.90;;;;;;6135309;23;20417;-81
2021/09/26 09:53:06;;;;;;;11.77;10.77;;;23.20;99.90;;;;;;6136739;23;20438;-81
2021/09/26 09:55:36;;;;;;;9.97;9.10;;;23.10;99.90;;;;;;6136966;23;20430;-81
2021/09/26 09:58:13;;;;;;;9.93;8.97;;;22.80;99.90;;;;;;6133042;23;20418;-81
2021/09/26 10:00:49;;;;;;;12.23;11.20;;;22.70;99.90;;;;;;6135593;23;20402;-80
2021/09/26 10:03:39;;;;;;;11.87;10.77;;;22.50;99.90;;;;;;6138570;23;20424;-82
2021/09/26 10:06:29;;;;;;;12.03;10.93;;;22.40;99.90;;;;;;6135708;23;20398;-81
2021/09/26 10:08:59;;;;;;;11.47;10.10;;;22.40;99.90;;;;;;6135581;23;20452;-81
2021/09/26 10:11:29;;;;;;;11.10;10.20;;;22.20;99.90;;;;;;6135427;23;20475;-81
2021/09/26 10:13:57;;;;;;;10.97;10.07;;;22.20;99.90;;;;;;6136643;23;20398;-81
2021/09/26 10:16:25;;;;;;;11.97;10.93;;;22.20;99.90;;;;;;6139723;23;20413;-82
2021/09/26 10:18:52;;;;;;;12.97;11.63;;;22.20;99.90;;;;;;6140705;23;20413;-81
2021/09/26 10:21:19;;;;;;;11.33;10.43;;;22.10;99.90;;;;;;6137096;23;20409;-81
2021/09/26 10:23:48;;;;;;;13.07;11.97;;;21.80;99.90;;;;;;6138294;23;20393;-81
2021/09/26 10:26:17;;;;;;;11.17;10.27;;;21.60;99.90;;;;;;6133481;23;20896;-80
2021/09/26 10:28:46;;;;;;;11.57;10.60;;;21.50;99.90;;;;;;6132321;23;20423;-82
2021/09/26 10:31:16;;;;;;;12.33;11.10;;;21.40;99.90;;;;;;6132670;23;20458;-80
2021/09/26 10:33:45;;;;;;;11.63;10.63;;;21.40;99.90;;;;;;6132888;23;20399;-81
2021/09/26 10:36:12;;;;;;;12.27;11.30;;;21.50;99.90;;;;;;6133743;23;20397;-81
2021/09/26 10:38:40;;;;;;;13.83;12.70;;;21.50;99.90;;;;;;6130573;23;20443;-81
2021/09/26 10:41:08;;;;;;;14.27;12.00;;;21.60;99.90;;;;;;6133663;23;20418;-81
2021/09/26 10:43:36;;;;;;;14.40;13.00;;;21.60;99.90;;;;;;6133988;23;20416;-82
2021/09/26 10:46:20;;;;;;;12.70;11.40;;;21.80;99.90;;;;;;6142882;23;20474;-81
2021/09/26 10:49:11;;;;;;;13.23;12.03;;;22.20;99.90;;;;;;6140925;23;20429;-81
2021/09/26 10:51:58;;;;;;;12.07;11.00;;;22.40;99.90;;;;;;6135756;23;20436;-82
2021/09/26 10:54:31;;;;;;;12.57;11.47;;;22.50;99.90;;;;;;6141887;23;20427;-81
2021/09/26 10:57:27;;;;;;;13.87;12.57;;;22.50;99.90;;;;;;6141085;23;20391;-84
2021/09/26 10:59:56;;;;;;;12.50;11.30;;;22.50;99.90;;;;;;6146951;23;20384;-83
2021/09/26 11:02:47;;;;;;;13.00;11.80;;;22.40;99.90;;;;;;6151633;23;20404;-82
2021/09/26 11:05:40;;;;;;;11.90;10.90;;;22.20;99.90;;;;;;6151357;23;20428;-81
2021/09/26 11:08:10;;;;;;;11.37;10.47;;;22.20;99.90;;;;;;6151319;23;20425;-82
2021/09/26 11:10:49;;;;;;;13.13;11.23;;;22.00;99.90;;;;;;6150364;23;20437;-82
2021/09/26 11:13:22;;;;;;;12.43;11.17;;;21.90;99.90;;;;;;6151001;23;20456;-83
2021/09/26 11:16:05;;;;;;;11.80;10.60;;;21.80;99.90;;;;;;6143177;23;20422;-83
2021/09/26 11:18:54;;;;;;;11.13;10.13;;;21.80;99.90;;;;;;6151704;23;20501;-82
2021/09/26 11:21:53;;;;;;;10.83;9.83;;;21.60;99.90;;;;;;6152387;23;20442;-83
2021/09/26 11:24:35;;;;;;;12.03;11.00;;;21.50;99.90;;;;;;6104249;23;20439;-83
2021/09/26 11:27:19;;;;;;;13.10;11.90;;;21.30;99.90;;;;;;6145086;23;20991;-80
2021/09/26 11:30:12;;;;;;;11.80;10.60;;;21.30;99.90;;;;;;6135910;23;20468;-81
2021/09/26 11:32:39;;;;;;;11.70;10.67;;;21.30;99.90;;;;;;6139298;23;20425;-81
2021/09/26 11:35:22;;;;;;;13.43;12.33;;;21.20;99.90;;;;;;6135857;23;20471;-81
2021/09/26 11:37:53;;;;;;;15.00;13.67;;;21.20;99.90;;;;;;6133944;23;20413;-80
2021/09/26 11:40:28;;;;;;;13.90;12.70;;;21.10;99.90;;;;;;6147001;23;20396;-80
2021/09/26 11:42:57;;;;;;;13.20;12.10;;;21.00;99.90;;;;;;6136105;23;20419;-79
2021/09/26 11:45:31;;;;;;;15.47;13.87;;;21.00;99.90;;;;;;6139388;23;20411;-80
2021/09/26 11:48:00;;;;;;;13.50;12.23;;;20.90;99.90;;;;;;6138160;23;20426;-80
2021/09/26 11:50:31;;;;;;;13.33;11.93;;;21.00;99.90;;;;;;6136042;23;20410;-84
2021/09/26 11:52:58;;;;;;;13.67;12.47;;;21.00;99.90;;;;;;6135869;23;20433;-80
2021/09/26 11:55:25;;;;;;;13.30;12.20;;;21.00;99.90;;;;;;6132757;23;20419;-79
2021/09/26 11:57:55;;;;;;;13.60;12.60;;;21.00;99.90;;;;;;6143202;23;20438;-79
2021/09/26 12:00:25;;;;;;;13.93;12.70;;;21.00;99.90;;;;;;6143931;23;20412;-81
2021/09/26 12:02:52;;;;;;;21.73;14.20;;;21.00;99.90;;;;;;6142830;23;20411;-80
2021/09/26 12:05:36;;;;;;;13.23;12.07;;;21.00;99.90;;;;;;6138661;23;20422;-80
2021/09/26 12:08:03;;;;;;;14.00;12.80;;;21.10;99.90;;;;;;6135846;23;20432;-80
2021/09/26 12:10:31;;;;;;;13.67;12.37;;;21.10;99.90;;;;;;6133868;23;20909;-80
2021/09/26 12:12:57;;;;;;;13.37;12.20;;;21.20;99.90;;;;;;6132465;23;20439;-80
2021/09/26 12:15:27;;;;;;;13.73;12.60;;;21.30;99.90;;;;;;6133907;23;20419;-80
2021/09/26 12:17:58;;;;;;;13.60;12.40;;;21.40;99.90;;;;;;6135878;23;20435;-81
2021/09/26 12:20:26;;;;;;;11.93;10.80;;;21.80;99.90;;;;;;6132350;23;20399;-81
2021/09/26 12:22:59;;;;;;;12.27;11.17;;;22.10;99.90;;;;;;6132446;23;20762;-82
2021/09/26 12:25:31;;;;;;;12.87;11.67;;;22.90;99.90;;;;;;6133519;23;20860;-82
2021/09/26 12:28:01;;;;;;;11.60;10.60;;;23.60;99.90;;;;;;6133602;23;20410;-81
2021/09/26 12:30:31;;;;;;;13.20;11.00;;;24.40;99.90;;;;;;6106142;23;20437;-81
2021/09/26 12:33:00;;;;;;;12.00;10.90;;;24.50;99.90;;;;;;6134335;23;20442;-82
2021/09/26 12:35:32;;;;;;;10.90;9.90;;;25.10;99.90;;;;;;6132171;23;20412;-81
2021/09/26 12:38:02;;;;;;;10.97;10.17;;;25.70;99.90;;;;;;6136031;23;20431;-81
2021/09/26 12:40:37;;;;;;;10.90;9.90;;;26.50;99.50;;;;;;6136103;23;20871;-82
2021/09/26 12:43:06;;;;;;;9.93;9.20;;;27.80;97.70;;;;;;6133944;23;20396;-82